Check out our new PWSWeather beta!
PWSweather.com
Personal Weather Stations
Station Observations
KOHAVON11
Long Road Station, Avon, OH 44011

Long Road StationAvon, OH 44011

Lat: 41.437, Lon: -82.0477

Elevation: 686

Station Type: Davis Vantage Pro2

http://www.avon-weather.com

Latest ConditionsUpdated 10:59:29 PM EST Thursday, Feb 20, 2020
Currently Today's Max Today's Min Today's Average
Temperature 16.7°F-8.5°C 25.9°F-3.4°C 16.7°F-8.5°C 22.2°F-5.4°C
Dew Point 8.6°F-13.0°C 16.7°F-8.5°C 6.7°F-14.1°C 11.0°F-11.7°C
Winds 2.0 mph N3.2 kmh N 11.0 mph -17.7 kmh - - 3.0 mph 4.8 kmh
Wind Gusts 3.0 mph4.8 kmh 15.0 mph24.1 kmh - -
Humidity 70% 72% 55% 62%
Pressure 30.61 in1036.6 mb 30.62 in1036.9 mb 30.50 in1032.8 mb -
Hour Temp Dew Point Humidity Winds Wind Gusts Pressure Precip Precip Rate Daily Precip Total
10:59 PM 16.7°F-8.5°C 8.6°F-13.0°C 70% 2.0 mph N3.2 kmh N 3.0 mph4.8 kmh 30.61 in1036.6 mb 0.00 in0.0 mm 0.00 in0.0 mm 0.00 in0.0 mm
10:54 PM 16.7°F-8.5°C 8.6°F-13.0°C 70% 2.0 mph N3.2 kmh N 3.0 mph4.8 kmh 30.61 in1036.6 mb 0.00 in0.0 mm 0.00 in0.0 mm 0.00 in0.0 mm
10:49 PM 16.8°F-8.4°C 8.7°F-12.9°C 70% 2.0 mph N3.2 kmh N 3.0 mph4.8 kmh 30.61 in1036.6 mb 0.00 in0.0 mm 0.00 in0.0 mm 0.00 in0.0 mm
10:44 PM 16.8°F-8.4°C 8.7°F-12.9°C 70% 1.0 mph N1.6 kmh N 3.0 mph4.8 kmh 30.61 in1036.6 mb 0.00 in0.0 mm 0.00 in0.0 mm 0.00 in0.0 mm
10:39 PM 16.8°F-8.4°C 8.7°F-12.9°C 70% 2.0 mph N3.2 kmh N 3.0 mph4.8 kmh 30.62 in1036.9 mb 0.00 in0.0 mm 0.00 in0.0 mm 0.00 in0.0 mm
10:34 PM 16.7°F-8.5°C 8.6°F-13.0°C 70% 3.0 mph N4.8 kmh N 3.0 mph4.8 kmh 30.62 in1036.9 mb 0.00 in0.0 mm 0.00 in0.0 mm 0.00 in0.0 mm
10:29 PM 16.7°F-8.5°C 8.3°F-13.2°C 69% 3.0 mph N4.8 kmh N 3.0 mph4.8 kmh 30.62 in1036.9 mb 0.00 in0.0 mm 0.00 in0.0 mm 0.00 in0.0 mm
10:24 PM 16.7°F-8.5°C 8.3°F-13.2°C 69% 2.0 mph N3.2 kmh N 3.0 mph4.8 kmh 30.61 in1036.6 mb 0.00 in0.0 mm 0.00 in0.0 mm 0.00 in0.0 mm
10:19 PM 16.8°F-8.4°C 8.3°F-13.2°C 69% Calm Calm -- 30.61 in1036.6 mb 0.00 in0.0 mm 0.00 in0.0 mm 0.00 in0.0 mm
10:14 PM 16.9°F-8.4°C 8.4°F-13.1°C 69% Calm Calm -- 30.62 in1036.9 mb 0.00 in0.0 mm 0.00 in0.0 mm 0.00 in0.0 mm
10:09 PM 16.9°F-8.4°C 8.4°F-13.1°C 69% Calm Calm -- 30.62 in1036.9 mb 0.00 in0.0 mm 0.00 in0.0 mm 0.00 in0.0 mm
10:04 PM 17.0°F-8.3°C 8.5°F-13.1°C 69% Calm Calm -- 30.62 in1036.9 mb 0.00 in0.0 mm 0.00 in0.0 mm 0.00 in0.0 mm
09:59 PM 17.1°F-8.3°C 8.6°F-13.0°C 69% Calm Calm -- 30.61 in1036.6 mb 0.00 in0.0 mm 0.00 in0.0 mm 0.00 in0.0 mm
09:54 PM 17.2°F-8.2°C 8.7°F-12.9°C 69% Calm Calm -- 30.62 in1036.9 mb 0.00 in0.0 mm 0.00 in0.0 mm 0.00 in0.0 mm
09:49 PM 17.2°F-8.2°C 8.7°F-12.9°C 69% Calm Calm -- 30.62 in1036.9 mb 0.00 in0.0 mm 0.00 in0.0 mm 0.00 in0.0 mm
09:44 PM 17.3°F-8.2°C 8.8°F-12.9°C 69% Calm Calm -- 30.62 in1036.9 mb 0.00 in0.0 mm 0.00 in0.0 mm 0.00 in0.0 mm
09:39 PM 17.3°F-8.2°C 8.5°F-13.1°C 68% Calm Calm -- 30.61 in1036.6 mb 0.00 in0.0 mm 0.00 in0.0 mm 0.00 in0.0 mm
09:34 PM 17.4°F-8.1°C 8.9°F-12.8°C 69% Calm Calm -- 30.61 in1036.6 mb 0.00 in0.0 mm 0.00 in0.0 mm 0.00 in0.0 mm
09:29 PM 17.4°F-8.1°C 8.6°F-13.0°C 68% Calm Calm -- 30.61 in1036.6 mb 0.00 in0.0 mm 0.00 in0.0 mm 0.00 in0.0 mm
09:24 PM 17.4°F-8.1°C 8.6°F-13.0°C 68% Calm Calm 2.0 mph3.2 kmh 30.60 in1036.2 mb 0.00 in0.0 mm 0.00 in0.0 mm 0.00 in0.0 mm
09:19 PM 17.4°F-8.1°C 8.6°F-13.0°C 68% 2.0 mph SSW3.2 kmh SSW 2.0 mph3.2 kmh 30.60 in1036.2 mb 0.00 in0.0 mm 0.00 in0.0 mm 0.00 in0.0 mm
09:14 PM 17.4°F-8.1°C 8.3°F-13.2°C 67% Calm Calm -- 30.61 in1036.6 mb 0.00 in0.0 mm 0.00 in0.0 mm 0.00 in0.0 mm
09:09 PM 17.5°F-8.1°C 8.3°F-13.2°C 67% Calm Calm -- 30.61 in1036.6 mb 0.00 in0.0 mm 0.00 in0.0 mm 0.00 in0.0 mm
09:04 PM 17.4°F-8.1°C 8.3°F-13.2°C 67% 1.0 mph SSW1.6 kmh SSW 2.0 mph3.2 kmh 30.61 in1036.6 mb 0.00 in0.0 mm 0.00 in0.0 mm 0.00 in0.0 mm
08:59 PM 17.4°F-8.1°C 7.9°F-13.4°C 66% 1.0 mph SE1.6 kmh SE 2.0 mph3.2 kmh 30.61 in1036.6 mb 0.00 in0.0 mm 0.00 in0.0 mm 0.00 in0.0 mm
08:54 PM 17.4°F-8.1°C 7.6°F-13.6°C 65% 1.0 mph SE1.6 kmh SE 1.0 mph1.6 kmh 30.61 in1036.6 mb 0.00 in0.0 mm 0.00 in0.0 mm 0.00 in0.0 mm
08:49 PM 17.4°F-8.1°C 7.2°F-13.8°C 64% Calm Calm -- 30.61 in1036.6 mb 0.00 in0.0 mm 0.00 in0.0 mm 0.00 in0.0 mm
08:44 PM 17.4°F-8.1°C 7.2°F-13.8°C 64% Calm Calm -- 30.61 in1036.6 mb 0.00 in0.0 mm 0.00 in0.0 mm 0.00 in0.0 mm
08:39 PM 17.5°F-8.1°C 6.9°F-13.9°C 63% Calm Calm 1.0 mph1.6 kmh 30.61 in1036.6 mb 0.00 in0.0 mm 0.00 in0.0 mm 0.00 in0.0 mm
08:34 PM 17.6°F-8.0°C 6.7°F-14.1°C 62% Calm Calm -- 30.61 in1036.6 mb 0.00 in0.0 mm 0.00 in0.0 mm 0.00 in0.0 mm
08:29 PM 17.8°F-7.9°C 6.9°F-13.9°C 62% Calm Calm -- 30.61 in1036.6 mb 0.00 in0.0 mm 0.00 in0.0 mm 0.00 in0.0 mm
08:24 PM 17.9°F-7.8°C 7.0°F-13.9°C 62% Calm Calm -- 30.61 in1036.6 mb 0.00 in0.0 mm 0.00 in0.0 mm 0.00 in0.0 mm
08:19 PM 18.1°F-7.7°C 6.8°F-14.0°C 61% Calm Calm -- 30.61 in1036.6 mb 0.00 in0.0 mm 0.00 in0.0 mm 0.00 in0.0 mm
08:14 PM 18.2°F-7.7°C 6.9°F-13.9°C 61% Calm Calm -- 30.61 in1036.6 mb 0.00 in0.0 mm 0.00 in0.0 mm 0.00 in0.0 mm
08:09 PM 18.4°F-7.6°C 7.1°F-13.8°C 61% Calm Calm -- 30.61 in1036.6 mb 0.00 in0.0 mm 0.00 in0.0 mm 0.00 in0.0 mm
08:04 PM 18.5°F-7.5°C 7.2°F-13.8°C 61% Calm Calm -- 30.61 in1036.6 mb 0.00 in0.0 mm 0.00 in0.0 mm 0.00 in0.0 mm
07:59 PM 18.7°F-7.4°C 7.0°F-13.9°C 60% 1.0 mph SE1.6 kmh SE 1.0 mph1.6 kmh 30.61 in1036.6 mb 0.00 in0.0 mm 0.00 in0.0 mm 0.00 in0.0 mm
07:54 PM 18.9°F-7.3°C 7.2°F-13.8°C 60% Calm Calm -- 30.61 in1036.6 mb 0.00 in0.0 mm 0.00 in0.0 mm 0.00 in0.0 mm
07:49 PM 19.1°F-7.2°C 7.3°F-13.7°C 60% Calm Calm -- 30.61 in1036.6 mb 0.00 in0.0 mm 0.00 in0.0 mm 0.00 in0.0 mm
07:44 PM 19.3°F-7.1°C 7.5°F-13.6°C 60% Calm Calm -- 30.61 in1036.6 mb 0.00 in0.0 mm 0.00 in0.0 mm 0.00 in0.0 mm
07:39 PM 19.5°F-6.9°C 7.7°F-13.5°C 60% Calm Calm -- 30.61 in1036.6 mb 0.00 in0.0 mm 0.00 in0.0 mm 0.00 in0.0 mm
07:34 PM 19.7°F-6.8°C 7.5°F-13.6°C 59% Calm Calm -- 30.61 in1036.6 mb 0.00 in0.0 mm 0.00 in0.0 mm 0.00 in0.0 mm
07:29 PM 19.9°F-6.7°C 7.7°F-13.5°C 59% Calm Calm -- 30.61 in1036.6 mb 0.00 in0.0 mm 0.00 in0.0 mm 0.00 in0.0 mm
07:24 PM 20.1°F-6.6°C 7.9°F-13.4°C 59% Calm Calm -- 30.61 in1036.6 mb 0.00 in0.0 mm 0.00 in0.0 mm 0.00 in0.0 mm
07:19 PM 20.2°F-6.6°C 8.0°F-13.3°C 59% Calm Calm -- 30.60 in1036.2 mb 0.00 in0.0 mm 0.00 in0.0 mm 0.00 in0.0 mm
07:14 PM 20.3°F-6.5°C 8.1°F-13.3°C 59% Calm Calm -- 30.61 in1036.6 mb 0.00 in0.0 mm 0.00 in0.0 mm 0.00 in0.0 mm
07:09 PM 20.4°F-6.4°C 8.2°F-13.2°C 59% Calm Calm -- 30.60 in1036.2 mb 0.00 in0.0 mm 0.00 in0.0 mm 0.00 in0.0 mm
07:04 PM 20.5°F-6.4°C 8.3°F-13.2°C 59% Calm Calm -- 30.60 in1036.2 mb 0.00 in0.0 mm 0.00 in0.0 mm 0.00 in0.0 mm
06:59 PM 20.6°F-6.3°C 8.4°F-13.1°C 59% 1.0 mph W1.6 kmh W 1.0 mph1.6 kmh 30.60 in1036.2 mb 0.00 in0.0 mm 0.00 in0.0 mm 0.00 in0.0 mm
06:54 PM 20.6°F-6.3°C 8.0°F-13.3°C 58% Calm Calm -- 30.60 in1036.2 mb 0.00 in0.0 mm 0.00 in0.0 mm 0.00 in0.0 mm
06:49 PM 20.7°F-6.3°C 8.1°F-13.3°C 58% Calm Calm 2.0 mph3.2 kmh 30.60 in1036.2 mb 0.00 in0.0 mm 0.00 in0.0 mm 0.00 in0.0 mm
06:44 PM 20.9°F-6.2°C 8.3°F-13.2°C 58% 1.0 mph N1.6 kmh N 1.0 mph1.6 kmh 30.59 in1035.9 mb 0.00 in0.0 mm 0.00 in0.0 mm 0.00 in0.0 mm
06:39 PM 20.9°F-6.2°C 8.3°F-13.2°C 58% Calm Calm -- 30.59 in1035.9 mb 0.00 in0.0 mm 0.00 in0.0 mm 0.00 in0.0 mm
06:34 PM 21.0°F-6.1°C 8.0°F-13.3°C 57% Calm Calm 1.0 mph1.6 kmh 30.59 in1035.9 mb 0.00 in0.0 mm 0.00 in0.0 mm 0.00 in0.0 mm
06:29 PM 21.1°F-6.1°C 8.1°F-13.3°C 57% Calm Calm 5.0 mph8.0 kmh 30.59 in1035.9 mb 0.00 in0.0 mm 0.00 in0.0 mm 0.00 in0.0 mm
06:24 PM 21.3°F-5.9°C 8.2°F-13.2°C 57% 2.0 mph N3.2 kmh N 5.0 mph8.0 kmh 30.59 in1035.9 mb 0.00 in0.0 mm 0.00 in0.0 mm 0.00 in0.0 mm
06:19 PM 21.4°F-5.9°C 8.3°F-13.2°C 57% 2.0 mph NNW3.2 kmh NNW 4.0 mph6.4 kmh 30.59 in1035.9 mb 0.00 in0.0 mm 0.00 in0.0 mm 0.00 in0.0 mm
06:14 PM 21.5°F-5.8°C 8.4°F-13.1°C 57% 2.0 mph NW3.2 kmh NW 4.0 mph6.4 kmh 30.59 in1035.9 mb 0.00 in0.0 mm 0.00 in0.0 mm 0.00 in0.0 mm
06:09 PM 21.6°F-5.8°C 8.1°F-13.3°C 56% Calm Calm 4.0 mph6.4 kmh 30.59 in1035.9 mb 0.00 in0.0 mm 0.00 in0.0 mm 0.00 in0.0 mm
06:04 PM 21.7°F-5.7°C 8.2°F-13.2°C 56% 1.0 mph NW1.6 kmh NW 8.0 mph12.9 kmh 30.59 in1035.9 mb 0.00 in0.0 mm 0.00 in0.0 mm 0.00 in0.0 mm
05:59 PM 21.8°F-5.7°C 8.3°F-13.2°C 56% 4.0 mph WNW6.4 kmh WNW 8.0 mph12.9 kmh 30.59 in1035.9 mb 0.00 in0.0 mm 0.00 in0.0 mm 0.00 in0.0 mm
05:54 PM 21.8°F-5.7°C 8.3°F-13.2°C 56% 2.0 mph 3.2 kmh 8.0 mph12.9 kmh 30.59 in1035.9 mb 0.00 in0.0 mm 0.00 in0.0 mm 0.00 in0.0 mm
05:49 PM 21.8°F-5.7°C 8.3°F-13.2°C 56% 2.0 mph NNE3.2 kmh NNE 8.0 mph12.9 kmh 30.59 in1035.9 mb 0.00 in0.0 mm 0.00 in0.0 mm 0.00 in0.0 mm
05:44 PM 21.8°F-5.7°C 8.3°F-13.2°C 56% 1.0 mph N1.6 kmh N 7.0 mph11.3 kmh 30.59 in1035.9 mb 0.00 in0.0 mm 0.00 in0.0 mm 0.00 in0.0 mm
05:39 PM 21.9°F-5.6°C 8.4°F-13.1°C 56% 2.0 mph NW3.2 kmh NW 2.0 mph3.2 kmh 30.59 in1035.9 mb 0.00 in0.0 mm 0.00 in0.0 mm 0.00 in0.0 mm
05:34 PM 21.9°F-5.6°C 8.4°F-13.1°C 56% 2.0 mph N3.2 kmh N 7.0 mph11.3 kmh 30.59 in1035.9 mb 0.00 in0.0 mm 0.00 in0.0 mm 0.00 in0.0 mm
05:29 PM 22.0°F-5.6°C 8.5°F-13.1°C 56% 4.0 mph N6.4 kmh N 7.0 mph11.3 kmh 30.59 in1035.9 mb 0.00 in0.0 mm 0.00 in0.0 mm 0.00 in0.0 mm
05:24 PM 22.1°F-5.5°C 8.6°F-13.0°C 56% 1.0 mph NNW1.6 kmh NNW 7.0 mph11.3 kmh 30.58 in1035.6 mb 0.00 in0.0 mm 0.00 in0.0 mm 0.00 in0.0 mm
05:19 PM 22.3°F-5.4°C 8.8°F-12.9°C 56% 3.0 mph NNW4.8 kmh NNW 7.0 mph11.3 kmh 30.58 in1035.6 mb 0.00 in0.0 mm 0.00 in0.0 mm 0.00 in0.0 mm
05:14 PM 22.3°F-5.4°C 9.2°F-12.7°C 57% 3.0 mph NNW4.8 kmh NNW 9.0 mph14.5 kmh 30.59 in1035.9 mb 0.00 in0.0 mm 0.00 in0.0 mm 0.00 in0.0 mm
05:09 PM 22.3°F-5.4°C 8.8°F-12.9°C 56% 4.0 mph N6.4 kmh N 9.0 mph14.5 kmh 30.59 in1035.9 mb 0.00 in0.0 mm 0.00 in0.0 mm 0.00 in0.0 mm
05:04 PM 22.3°F-5.4°C 8.8°F-12.9°C 56% 4.0 mph NNW6.4 kmh NNW 10.0 mph16.1 kmh 30.59 in1035.9 mb 0.00 in0.0 mm 0.00 in0.0 mm 0.00 in0.0 mm
04:59 PM 22.2°F-5.4°C 8.3°F-13.2°C 55% 2.0 mph NNW3.2 kmh NNW 10.0 mph16.1 kmh 30.59 in1035.9 mb 0.00 in0.0 mm 0.00 in0.0 mm 0.00 in0.0 mm
04:54 PM 22.3°F-5.4°C 8.4°F-13.1°C 55% 5.0 mph NW8.0 kmh NW 11.0 mph17.7 kmh 30.59 in1035.9 mb 0.00 in0.0 mm 0.00 in0.0 mm 0.00 in0.0 mm
04:49 PM 22.3°F-5.4°C 8.4°F-13.1°C 55% 7.0 mph N11.3 kmh N 11.0 mph17.7 kmh 30.59 in1035.9 mb 0.00 in0.0 mm 0.00 in0.0 mm 0.00 in0.0 mm
04:44 PM 22.5°F-5.3°C 9.0°F-12.8°C 56% 2.0 mph NNE3.2 kmh NNE 11.0 mph17.7 kmh 30.59 in1035.9 mb 0.00 in0.0 mm 0.00 in0.0 mm 0.00 in0.0 mm
04:39 PM 22.4°F-5.3°C 8.9°F-12.8°C 56% Calm Calm 11.0 mph17.7 kmh 30.59 in1035.9 mb 0.00 in0.0 mm 0.00 in0.0 mm 0.00 in0.0 mm
04:34 PM 22.3°F-5.4°C 8.8°F-12.9°C 56% 5.0 mph NNE8.0 kmh NNE 9.0 mph14.5 kmh 30.59 in1035.9 mb 0.00 in0.0 mm 0.00 in0.0 mm 0.00 in0.0 mm
04:29 PM 22.2°F-5.4°C 8.7°F-12.9°C 56% 6.0 mph NNE9.7 kmh NNE 9.0 mph14.5 kmh 30.59 in1035.9 mb 0.00 in0.0 mm 0.00 in0.0 mm 0.00 in0.0 mm
04:24 PM 22.4°F-5.3°C 9.3°F-12.6°C 57% 6.0 mph NNE9.7 kmh NNE 12.0 mph19.3 kmh 30.59 in1035.9 mb 0.00 in0.0 mm 0.00 in0.0 mm 0.00 in0.0 mm
04:19 PM 22.6°F-5.2°C 9.9°F-12.3°C 58% 6.0 mph NE9.7 kmh NE 12.0 mph19.3 kmh 30.59 in1035.9 mb 0.00 in0.0 mm 0.00 in0.0 mm 0.00 in0.0 mm
04:14 PM 22.6°F-5.2°C 9.5°F-12.5°C 57% 3.0 mph N4.8 kmh N 12.0 mph19.3 kmh 30.59 in1035.9 mb 0.00 in0.0 mm 0.00 in0.0 mm 0.00 in0.0 mm
04:09 PM 22.7°F-5.2°C 9.6°F-12.4°C 57% 3.0 mph N4.8 kmh N 12.0 mph19.3 kmh 30.59 in1035.9 mb 0.00 in0.0 mm 0.00 in0.0 mm 0.00 in0.0 mm
04:04 PM 22.9°F-5.1°C 10.1°F-12.2°C 58% 2.0 mph NW3.2 kmh NW 6.0 mph9.7 kmh 30.59 in1035.9 mb 0.00 in0.0 mm 0.00 in0.0 mm 0.00 in0.0 mm
03:56 PM 23.2°F-4.9°C 10.4°F-12.0°C 58% 2.0 mph NW3.2 kmh NW 9.0 mph14.5 kmh 30.59 in1035.9 mb 0.00 in0.0 mm 0.00 in0.0 mm 0.00 in0.0 mm
03:51 PM 23.0°F-5.0°C 10.2°F-12.1°C 58% 5.0 mph N8.0 kmh N 9.0 mph14.5 kmh 30.59 in1035.9 mb 0.00 in0.0 mm 0.00 in0.0 mm 0.00 in0.0 mm
03:46 PM 22.9°F-5.1°C 9.7°F-12.4°C 57% 4.0 mph WNW6.4 kmh WNW 9.0 mph14.5 kmh 30.59 in1035.9 mb 0.00 in0.0 mm 0.00 in0.0 mm 0.00 in0.0 mm
03:41 PM 23.0°F-5.0°C 9.8°F-12.3°C 57% 6.0 mph N9.7 kmh N 9.0 mph14.5 kmh 30.59 in1035.9 mb 0.00 in0.0 mm 0.00 in0.0 mm 0.00 in0.0 mm
03:36 PM 22.9°F-5.1°C 10.1°F-12.2°C 58% 3.0 mph N4.8 kmh N 9.0 mph14.5 kmh 30.59 in1035.9 mb 0.00 in0.0 mm 0.00 in0.0 mm 0.00 in0.0 mm
03:31 PM 22.8°F-5.1°C 10.0°F-12.2°C 58% 2.0 mph NNE3.2 kmh NNE 9.0 mph14.5 kmh 30.59 in1035.9 mb 0.00 in0.0 mm 0.00 in0.0 mm 0.00 in0.0 mm
03:26 PM 22.6°F-5.2°C 9.9°F-12.3°C 58% 4.0 mph NNW6.4 kmh NNW 9.0 mph14.5 kmh 30.59 in1035.9 mb 0.00 in0.0 mm 0.00 in0.0 mm 0.00 in0.0 mm
03:21 PM 22.7°F-5.2°C 10.3°F-12.1°C 59% 7.0 mph NNE11.3 kmh NNE 9.0 mph14.5 kmh 30.59 in1035.9 mb 0.00 in0.0 mm 0.00 in0.0 mm 0.00 in0.0 mm
03:16 PM 22.7°F-5.2°C 10.0°F-12.2°C 58% 6.0 mph NNW9.7 kmh NNW 12.0 mph19.3 kmh 30.59 in1035.9 mb 0.00 in0.0 mm 0.00 in0.0 mm 0.00 in0.0 mm
03:11 PM 23.0°F-5.0°C 10.6°F-11.9°C 59% 4.0 mph NNE6.4 kmh NNE 12.0 mph19.3 kmh 30.59 in1035.9 mb 0.00 in0.0 mm 0.00 in0.0 mm 0.00 in0.0 mm
03:06 PM 23.0°F-5.0°C 10.6°F-11.9°C 59% 2.0 mph N3.2 kmh N 12.0 mph19.3 kmh 30.59 in1035.9 mb 0.00 in0.0 mm 0.00 in0.0 mm 0.00 in0.0 mm
03:01 PM 23.0°F-5.0°C 11.0°F-11.7°C 60% 6.0 mph N9.7 kmh N 12.0 mph19.3 kmh 30.59 in1035.9 mb 0.00 in0.0 mm 0.00 in0.0 mm 0.00 in0.0 mm
02:56 PM 22.8°F-5.1°C 10.8°F-11.8°C 60% 4.0 mph NE6.4 kmh NE 10.0 mph16.1 kmh 30.59 in1035.9 mb 0.00 in0.0 mm 0.00 in0.0 mm 0.00 in0.0 mm
02:51 PM 22.9°F-5.1°C 10.9°F-11.7°C 60% 4.0 mph NNE6.4 kmh NNE 10.0 mph16.1 kmh 30.59 in1035.9 mb 0.00 in0.0 mm 0.00 in0.0 mm 0.00 in0.0 mm
02:46 PM 22.9°F-5.1°C 10.9°F-11.7°C 60% 5.0 mph WNW8.0 kmh WNW 7.0 mph11.3 kmh 30.59 in1035.9 mb 0.00 in0.0 mm 0.00 in0.0 mm 0.00 in0.0 mm
02:41 PM 23.1°F-4.9°C 10.7°F-11.8°C 59% 4.0 mph WNW6.4 kmh WNW 7.0 mph11.3 kmh 30.59 in1035.9 mb 0.00 in0.0 mm 0.00 in0.0 mm 0.00 in0.0 mm
02:36 PM 23.0°F-5.0°C 10.6°F-11.9°C 59% 3.0 mph NW4.8 kmh NW 7.0 mph11.3 kmh 30.59 in1035.9 mb 0.00 in0.0 mm 0.00 in0.0 mm 0.00 in0.0 mm
02:31 PM 22.8°F-5.1°C 9.6°F-12.4°C 57% 2.0 mph NW3.2 kmh NW 10.0 mph16.1 kmh 30.59 in1035.9 mb 0.00 in0.0 mm 0.00 in0.0 mm 0.00 in0.0 mm
02:26 PM 23.3°F-4.8°C 10.5°F-11.9°C 58% 4.0 mph NW6.4 kmh NW 10.0 mph16.1 kmh 30.59 in1035.9 mb 0.00 in0.0 mm 0.00 in0.0 mm 0.00 in0.0 mm
02:21 PM 23.3°F-4.8°C 10.5°F-11.9°C 58% 2.0 mph N3.2 kmh N 13.0 mph20.9 kmh 30.59 in1035.9 mb 0.00 in0.0 mm 0.00 in0.0 mm 0.00 in0.0 mm
02:16 PM 23.4°F-4.8°C 10.2°F-12.1°C 57% 7.0 mph NE11.3 kmh NE 13.0 mph20.9 kmh 30.59 in1035.9 mb 0.00 in0.0 mm 0.00 in0.0 mm 0.00 in0.0 mm
02:11 PM 23.1°F-4.9°C 10.3°F-12.1°C 58% 5.0 mph NW8.0 kmh NW 14.0 mph22.5 kmh 30.59 in1035.9 mb 0.00 in0.0 mm 0.00 in0.0 mm 0.00 in0.0 mm
02:06 PM 22.8°F-5.1°C 10.0°F-12.2°C 58% 7.0 mph NNE11.3 kmh NNE 14.0 mph22.5 kmh 30.59 in1035.9 mb 0.00 in0.0 mm 0.00 in0.0 mm 0.00 in0.0 mm
02:01 PM 22.9°F-5.1°C 10.1°F-12.2°C 58% 3.0 mph NNW4.8 kmh NNW 15.0 mph24.1 kmh 30.59 in1035.9 mb 0.00 in0.0 mm 0.00 in0.0 mm 0.00 in0.0 mm
01:56 PM 23.2°F-4.9°C 10.8°F-11.8°C 59% 11.0 mph NNW17.7 kmh NNW 15.0 mph24.1 kmh 30.59 in1035.9 mb 0.00 in0.0 mm 0.00 in0.0 mm 0.00 in0.0 mm
01:51 PM 23.2°F-4.9°C 10.4°F-12.0°C 58% 3.0 mph NNE4.8 kmh NNE 15.0 mph24.1 kmh 30.59 in1035.9 mb 0.00 in0.0 mm 0.00 in0.0 mm 0.00 in0.0 mm
01:46 PM 23.4°F-4.8°C 10.6°F-11.9°C 58% 5.0 mph NW8.0 kmh NW 15.0 mph24.1 kmh 30.59 in1035.9 mb 0.00 in0.0 mm 0.00 in0.0 mm 0.00 in0.0 mm
01:41 PM 23.1°F-4.9°C 10.3°F-12.1°C 58% 7.0 mph WNW11.3 kmh WNW 12.0 mph19.3 kmh 30.60 in1036.2 mb 0.00 in0.0 mm 0.00 in0.0 mm 0.00 in0.0 mm
01:36 PM 22.5°F-5.3°C 9.4°F-12.6°C 57% 3.0 mph NNW4.8 kmh NNW 13.0 mph20.9 kmh 30.60 in1036.2 mb 0.00 in0.0 mm 0.00 in0.0 mm 0.00 in0.0 mm
01:31 PM 23.0°F-5.0°C 10.2°F-12.1°C 58% 8.0 mph NE12.9 kmh NE 13.0 mph20.9 kmh 30.60 in1036.2 mb 0.00 in0.0 mm 0.00 in0.0 mm 0.00 in0.0 mm
01:26 PM 22.9°F-5.1°C 10.1°F-12.2°C 58% 4.0 mph NW6.4 kmh NW 13.0 mph20.9 kmh 30.60 in1036.2 mb 0.00 in0.0 mm 0.00 in0.0 mm 0.00 in0.0 mm
01:21 PM 23.2°F-4.9°C 10.4°F-12.0°C 58% 3.0 mph NW4.8 kmh NW 13.0 mph20.9 kmh 30.60 in1036.2 mb 0.00 in0.0 mm 0.00 in0.0 mm 0.00 in0.0 mm
01:16 PM 23.2°F-4.9°C 10.8°F-11.8°C 59% 6.0 mph NNE9.7 kmh NNE 12.0 mph19.3 kmh 30.60 in1036.2 mb 0.00 in0.0 mm 0.00 in0.0 mm 0.00 in0.0 mm
01:11 PM 23.4°F-4.8°C 11.4°F-11.4°C 60% 5.0 mph N8.0 kmh N 10.0 mph16.1 kmh 30.60 in1036.2 mb 0.00 in0.0 mm 0.00 in0.0 mm 0.00 in0.0 mm
01:06 PM 23.2°F-4.9°C 10.8°F-11.8°C 59% 3.0 mph NW4.8 kmh NW 9.0 mph14.5 kmh 30.60 in1036.2 mb 0.00 in0.0 mm 0.00 in0.0 mm 0.00 in0.0 mm
01:01 PM 23.3°F-4.8°C 10.9°F-11.7°C 59% 2.0 mph NW3.2 kmh NW 12.0 mph19.3 kmh 30.60 in1036.2 mb 0.00 in0.0 mm 0.00 in0.0 mm 0.00 in0.0 mm
12:56 PM 23.4°F-4.8°C 11.0°F-11.7°C 59% 3.0 mph NW4.8 kmh NW 12.0 mph19.3 kmh 30.60 in1036.2 mb 0.00 in0.0 mm 0.00 in0.0 mm 0.00 in0.0 mm
12:51 PM 23.2°F-4.9°C 10.8°F-11.8°C 59% 3.0 mph NNW4.8 kmh NNW 15.0 mph24.1 kmh 30.60 in1036.2 mb 0.00 in0.0 mm 0.00 in0.0 mm 0.00 in0.0 mm
12:46 PM 23.3°F-4.8°C 10.9°F-11.7°C 59% 7.0 mph NW11.3 kmh NW 15.0 mph24.1 kmh 30.61 in1036.6 mb 0.00 in0.0 mm 0.00 in0.0 mm 0.00 in0.0 mm
12:41 PM 23.5°F-4.7°C 10.7°F-11.8°C 58% 5.0 mph NW8.0 kmh NW 15.0 mph24.1 kmh 30.61 in1036.6 mb 0.00 in0.0 mm 0.00 in0.0 mm 0.00 in0.0 mm
12:36 PM 24.0°F-4.4°C 11.6°F-11.3°C 59% 5.0 mph 8.0 kmh 15.0 mph24.1 kmh 30.60 in1036.2 mb 0.00 in0.0 mm 0.00 in0.0 mm 0.00 in0.0 mm
12:31 PM 24.0°F-4.4°C 11.2°F-11.6°C 58% 6.0 mph WNW9.7 kmh WNW 11.0 mph17.7 kmh 30.60 in1036.2 mb 0.00 in0.0 mm 0.00 in0.0 mm 0.00 in0.0 mm
12:26 PM 24.0°F-4.4°C 11.2°F-11.6°C 58% 4.0 mph 6.4 kmh 12.0 mph19.3 kmh 30.61 in1036.6 mb 0.00 in0.0 mm 0.00 in0.0 mm 0.00 in0.0 mm
12:21 PM 24.8°F-4.0°C 12.3°F-10.9°C 59% 6.0 mph NW9.7 kmh NW 12.0 mph19.3 kmh 30.61 in1036.6 mb 0.00 in0.0 mm 0.00 in0.0 mm 0.00 in0.0 mm
12:16 PM 23.6°F-4.7°C 10.8°F-11.8°C 58% 6.0 mph WNW9.7 kmh WNW 12.0 mph19.3 kmh 30.61 in1036.6 mb 0.00 in0.0 mm 0.00 in0.0 mm 0.00 in0.0 mm
12:11 PM 24.5°F-4.2°C 11.6°F-11.3°C 58% 4.0 mph WNW6.4 kmh WNW 12.0 mph19.3 kmh 30.61 in1036.6 mb 0.00 in0.0 mm 0.00 in0.0 mm 0.00 in0.0 mm
12:06 PM 25.0°F-3.9°C 13.3°F-10.4°C 61% 4.0 mph NW6.4 kmh NW 13.0 mph20.9 kmh 30.61 in1036.6 mb 0.00 in0.0 mm 0.00 in0.0 mm 0.00 in0.0 mm
12:01 PM 22.8°F-5.1°C 10.4°F-12.0°C 59% 2.0 mph 3.2 kmh 13.0 mph20.9 kmh 30.61 in1036.6 mb 0.00 in0.0 mm 0.00 in0.0 mm 0.00 in0.0 mm
11:56 AM 23.3°F-4.8°C 10.9°F-11.7°C 59% 6.0 mph WNW9.7 kmh WNW 13.0 mph20.9 kmh 30.61 in1036.6 mb 0.00 in0.0 mm 0.00 in0.0 mm 0.00 in0.0 mm
11:51 AM 22.9°F-5.1°C 10.9°F-11.7°C 60% 4.0 mph N6.4 kmh N 13.0 mph20.9 kmh 30.61 in1036.6 mb 0.00 in0.0 mm 0.00 in0.0 mm 0.00 in0.0 mm
11:46 AM 23.3°F-4.8°C 11.7°F-11.3°C 61% 6.0 mph N9.7 kmh N 12.0 mph19.3 kmh 30.61 in1036.6 mb 0.00 in0.0 mm 0.00 in0.0 mm 0.00 in0.0 mm
11:41 AM 22.9°F-5.1°C 11.3°F-11.5°C 61% 5.0 mph NNW8.0 kmh NNW 12.0 mph19.3 kmh 30.61 in1036.6 mb 0.00 in0.0 mm 0.00 in0.0 mm 0.00 in0.0 mm
11:36 AM 22.8°F-5.1°C 11.2°F-11.6°C 61% 5.0 mph NW8.0 kmh NW 12.0 mph19.3 kmh 30.61 in1036.6 mb 0.00 in0.0 mm 0.00 in0.0 mm 0.00 in0.0 mm
11:31 AM 23.3°F-4.8°C 11.7°F-11.3°C 61% 3.0 mph N4.8 kmh N 10.0 mph16.1 kmh 30.61 in1036.6 mb 0.00 in0.0 mm 0.00 in0.0 mm 0.00 in0.0 mm
11:26 AM 23.4°F-4.8°C 11.4°F-11.4°C 60% 3.0 mph N4.8 kmh N 10.0 mph16.1 kmh 30.61 in1036.6 mb 0.00 in0.0 mm 0.00 in0.0 mm 0.00 in0.0 mm
11:21 AM 23.6°F-4.7°C 11.6°F-11.3°C 60% 4.0 mph N6.4 kmh N 12.0 mph19.3 kmh 30.61 in1036.6 mb 0.00 in0.0 mm 0.00 in0.0 mm 0.00 in0.0 mm
11:16 AM 23.4°F-4.8°C 11.8°F-11.2°C 61% 4.0 mph NW6.4 kmh NW 12.0 mph19.3 kmh 30.61 in1036.6 mb 0.00 in0.0 mm 0.00 in0.0 mm 0.00 in0.0 mm
11:11 AM 23.4°F-4.8°C 12.2°F-11.0°C 62% 1.0 mph N1.6 kmh N 12.0 mph19.3 kmh 30.61 in1036.6 mb 0.00 in0.0 mm 0.00 in0.0 mm 0.00 in0.0 mm
11:06 AM 23.3°F-4.8°C 12.1°F-11.1°C 62% 4.0 mph NW6.4 kmh NW 12.0 mph19.3 kmh 30.61 in1036.6 mb 0.00 in0.0 mm 0.00 in0.0 mm 0.00 in0.0 mm
11:01 AM 23.3°F-4.8°C 12.1°F-11.1°C 62% 6.0 mph NNW9.7 kmh NNW 10.0 mph16.1 kmh 30.61 in1036.6 mb 0.00 in0.0 mm 0.00 in0.0 mm 0.00 in0.0 mm
10:56 AM 23.7°F-4.6°C 12.4°F-10.9°C 62% 5.0 mph WNW8.0 kmh WNW 10.0 mph16.1 kmh 30.61 in1036.6 mb 0.00 in0.0 mm 0.00 in0.0 mm 0.00 in0.0 mm
10:51 AM 24.1°F-4.4°C 13.2°F-10.4°C 63% 8.0 mph WNW12.9 kmh WNW 13.0 mph20.9 kmh 30.61 in1036.6 mb 0.00 in0.0 mm 0.00 in0.0 mm 0.00 in0.0 mm
10:46 AM 23.7°F-4.6°C 12.4°F-10.9°C 62% 3.0 mph NNW4.8 kmh NNW 13.0 mph20.9 kmh 30.61 in1036.6 mb 0.00 in0.0 mm 0.00 in0.0 mm 0.00 in0.0 mm
10:41 AM 23.5°F-4.7°C 12.3°F-10.9°C 62% 4.0 mph N6.4 kmh N 13.0 mph20.9 kmh 30.61 in1036.6 mb 0.00 in0.0 mm 0.00 in0.0 mm 0.00 in0.0 mm
10:36 AM 23.6°F-4.7°C 12.7°F-10.7°C 63% 8.0 mph NW12.9 kmh NW 13.0 mph20.9 kmh 30.61 in1036.6 mb 0.00 in0.0 mm 0.00 in0.0 mm 0.00 in0.0 mm
10:31 AM 23.4°F-4.8°C 12.5°F-10.8°C 63% 3.0 mph NW4.8 kmh NW 11.0 mph17.7 kmh 30.61 in1036.6 mb 0.00 in0.0 mm 0.00 in0.0 mm 0.00 in0.0 mm
10:26 AM 23.0°F-5.0°C 12.5°F-10.8°C 64% 6.0 mph NW9.7 kmh NW 11.0 mph17.7 kmh 30.61 in1036.6 mb 0.00 in0.0 mm 0.00 in0.0 mm 0.00 in0.0 mm
10:21 AM 23.1°F-4.9°C 13.0°F-10.6°C 65% 8.0 mph W12.9 kmh W 11.0 mph17.7 kmh 30.61 in1036.6 mb 0.00 in0.0 mm 0.00 in0.0 mm 0.00 in0.0 mm
10:16 AM 23.1°F-4.9°C 13.3°F-10.4°C 66% 7.0 mph NW11.3 kmh NW 12.0 mph19.3 kmh 30.61 in1036.6 mb 0.00 in0.0 mm 0.00 in0.0 mm 0.00 in0.0 mm
10:11 AM 23.0°F-5.0°C 13.2°F-10.4°C 66% 5.0 mph WNW8.0 kmh WNW 12.0 mph19.3 kmh 30.61 in1036.6 mb 0.00 in0.0 mm 0.00 in0.0 mm 0.00 in0.0 mm
10:06 AM 23.0°F-5.0°C 13.6°F-10.2°C 67% 7.0 mph NW11.3 kmh NW 12.0 mph19.3 kmh 30.60 in1036.2 mb 0.00 in0.0 mm 0.00 in0.0 mm 0.00 in0.0 mm
10:01 AM 22.8°F-5.1°C 14.4°F-9.8°C 70% 6.0 mph N9.7 kmh N 12.0 mph19.3 kmh 30.60 in1036.2 mb 0.00 in0.0 mm 0.00 in0.0 mm 0.00 in0.0 mm
09:56 AM 22.7°F-5.2°C 14.3°F-9.8°C 70% 6.0 mph NW9.7 kmh NW 11.0 mph17.7 kmh 30.60 in1036.2 mb 0.00 in0.0 mm 0.00 in0.0 mm 0.00 in0.0 mm
09:51 AM 22.7°F-5.2°C 14.7°F-9.6°C 71% 5.0 mph NW8.0 kmh NW 11.0 mph17.7 kmh 30.60 in1036.2 mb 0.00 in0.0 mm 0.00 in0.0 mm 0.00 in0.0 mm
09:46 AM 22.9°F-5.1°C 14.9°F-9.5°C 71% 3.0 mph NNW4.8 kmh NNW 11.0 mph17.7 kmh 30.60 in1036.2 mb 0.00 in0.0 mm 0.00 in0.0 mm 0.00 in0.0 mm
09:41 AM 22.8°F-5.1°C 15.1°F-9.4°C 72% 4.0 mph WNW6.4 kmh WNW 10.0 mph16.1 kmh 30.60 in1036.2 mb 0.00 in0.0 mm 0.00 in0.0 mm 0.00 in0.0 mm
09:36 AM 22.7°F-5.2°C 14.7°F-9.6°C 71% 3.0 mph NW4.8 kmh NW 11.0 mph17.7 kmh 30.60 in1036.2 mb 0.00 in0.0 mm 0.00 in0.0 mm 0.00 in0.0 mm
09:31 AM 22.9°F-5.1°C 15.2°F-9.3°C 72% 4.0 mph NE6.4 kmh NE 11.0 mph17.7 kmh 30.59 in1035.9 mb 0.00 in0.0 mm 0.00 in0.0 mm 0.00 in0.0 mm
09:26 AM 22.7°F-5.2°C 14.7°F-9.6°C 71% 9.0 mph NW14.5 kmh NW 11.0 mph17.7 kmh 30.59 in1035.9 mb 0.00 in0.0 mm 0.00 in0.0 mm 0.00 in0.0 mm
09:21 AM 22.7°F-5.2°C 14.7°F-9.6°C 71% 7.0 mph WNW11.3 kmh WNW 11.0 mph17.7 kmh 30.59 in1035.9 mb 0.00 in0.0 mm 0.00 in0.0 mm 0.00 in0.0 mm
09:16 AM 22.6°F-5.2°C 13.9°F-10.1°C 69% 7.0 mph WNW11.3 kmh WNW 10.0 mph16.1 kmh 30.59 in1035.9 mb 0.00 in0.0 mm 0.00 in0.0 mm 0.00 in0.0 mm
09:11 AM 22.5°F-5.3°C 13.1°F-10.5°C 67% 6.0 mph WNW9.7 kmh WNW 10.0 mph16.1 kmh 30.59 in1035.9 mb 0.00 in0.0 mm 0.00 in0.0 mm 0.00 in0.0 mm
09:06 AM 22.6°F-5.2°C 13.2°F-10.4°C 67% 5.0 mph N8.0 kmh N 9.0 mph14.5 kmh 30.59 in1035.9 mb 0.00 in0.0 mm 0.00 in0.0 mm 0.00 in0.0 mm
09:01 AM 22.8°F-5.1°C 13.0°F-10.6°C 66% 3.0 mph WNW4.8 kmh WNW 9.0 mph14.5 kmh 30.59 in1035.9 mb 0.00 in0.0 mm 0.00 in0.0 mm 0.00 in0.0 mm
08:56 AM 22.7°F-5.2°C 12.6°F-10.8°C 65% 4.0 mph NW6.4 kmh NW 9.0 mph14.5 kmh 30.59 in1035.9 mb 0.00 in0.0 mm 0.00 in0.0 mm 0.00 in0.0 mm
08:51 AM 22.6°F-5.2°C 12.1°F-11.1°C 64% 3.0 mph NW4.8 kmh NW 10.0 mph16.1 kmh 30.59 in1035.9 mb 0.00 in0.0 mm 0.00 in0.0 mm 0.00 in0.0 mm
08:46 AM 22.6°F-5.2°C 11.8°F-11.2°C 63% 4.0 mph NW6.4 kmh NW 10.0 mph16.1 kmh 30.59 in1035.9 mb 0.00 in0.0 mm 0.00 in0.0 mm 0.00 in0.0 mm
08:41 AM 22.4°F-5.3°C 11.2°F-11.6°C 62% 2.0 mph NW3.2 kmh NW 10.0 mph16.1 kmh 30.58 in1035.6 mb 0.00 in0.0 mm 0.00 in0.0 mm 0.00 in0.0 mm
08:36 AM 22.4°F-5.3°C 11.2°F-11.6°C 62% 1.0 mph NW1.6 kmh NW 10.0 mph16.1 kmh 30.58 in1035.6 mb 0.00 in0.0 mm 0.00 in0.0 mm 0.00 in0.0 mm
08:31 AM 22.4°F-5.3°C 11.2°F-11.6°C 62% 6.0 mph NNW9.7 kmh NNW 8.0 mph12.9 kmh 30.58 in1035.6 mb 0.00 in0.0 mm 0.00 in0.0 mm 0.00 in0.0 mm
08:26 AM 22.4°F-5.3°C 11.2°F-11.6°C 62% 3.0 mph NNE4.8 kmh NNE 8.0 mph12.9 kmh 30.57 in1035.2 mb 0.00 in0.0 mm 0.00 in0.0 mm 0.00 in0.0 mm
08:21 AM 22.4°F-5.3°C 11.2°F-11.6°C 62% 2.0 mph NNE3.2 kmh NNE 8.0 mph12.9 kmh 30.58 in1035.6 mb 0.00 in0.0 mm 0.00 in0.0 mm 0.00 in0.0 mm
08:16 AM 22.4°F-5.3°C 11.2°F-11.6°C 62% 5.0 mph WNW8.0 kmh WNW 11.0 mph17.7 kmh 30.58 in1035.6 mb 0.00 in0.0 mm 0.00 in0.0 mm 0.00 in0.0 mm
08:11 AM 22.4°F-5.3°C 11.2°F-11.6°C 62% 2.0 mph NW3.2 kmh NW 11.0 mph17.7 kmh 30.57 in1035.2 mb 0.00 in0.0 mm 0.00 in0.0 mm 0.00 in0.0 mm
08:06 AM 22.4°F-5.3°C 11.2°F-11.6°C 62% 3.0 mph NW4.8 kmh NW 11.0 mph17.7 kmh 30.57 in1035.2 mb 0.00 in0.0 mm 0.00 in0.0 mm 0.00 in0.0 mm
08:01 AM 22.4°F-5.3°C 11.2°F-11.6°C 62% 7.0 mph NW11.3 kmh NW 11.0 mph17.7 kmh 30.57 in1035.2 mb 0.00 in0.0 mm 0.00 in0.0 mm 0.00 in0.0 mm
07:56 AM 22.3°F-5.4°C 11.1°F-11.6°C 62% 6.0 mph NNW9.7 kmh NNW 8.0 mph12.9 kmh 30.56 in1034.9 mb 0.00 in0.0 mm 0.00 in0.0 mm 0.00 in0.0 mm
07:51 AM 22.3°F-5.4°C 11.1°F-11.6°C 62% 2.0 mph NW3.2 kmh NW 8.0 mph12.9 kmh 30.56 in1034.9 mb 0.00 in0.0 mm 0.00 in0.0 mm 0.00 in0.0 mm
07:46 AM 22.3°F-5.4°C 11.1°F-11.6°C 62% 2.0 mph NNE3.2 kmh NNE 7.0 mph11.3 kmh 30.56 in1034.9 mb 0.00 in0.0 mm 0.00 in0.0 mm 0.00 in0.0 mm
07:41 AM 22.3°F-5.4°C 11.1°F-11.6°C 62% 4.0 mph NW6.4 kmh NW 8.0 mph12.9 kmh 30.56 in1034.9 mb 0.00 in0.0 mm 0.00 in0.0 mm 0.00 in0.0 mm
07:36 AM 22.3°F-5.4°C 11.1°F-11.6°C 62% 2.0 mph NNW3.2 kmh NNW 8.0 mph12.9 kmh 30.55 in1034.5 mb 0.00 in0.0 mm 0.00 in0.0 mm 0.00 in0.0 mm
07:31 AM 22.3°F-5.4°C 11.1°F-11.6°C 62% 2.0 mph NW3.2 kmh NW 8.0 mph12.9 kmh 30.55 in1034.5 mb 0.00 in0.0 mm 0.00 in0.0 mm 0.00 in0.0 mm
07:26 AM 22.3°F-5.4°C 11.1°F-11.6°C 62% 5.0 mph NW8.0 kmh NW 8.0 mph12.9 kmh 30.55 in1034.5 mb 0.00 in0.0 mm 0.00 in0.0 mm 0.00 in0.0 mm
07:21 AM 22.3°F-5.4°C 11.1°F-11.6°C 62% 3.0 mph NNW4.8 kmh NNW 10.0 mph16.1 kmh 30.55 in1034.5 mb 0.00 in0.0 mm 0.00 in0.0 mm 0.00 in0.0 mm
07:16 AM 22.3°F-5.4°C 11.1°F-11.6°C 62% 3.0 mph NW4.8 kmh NW 10.0 mph16.1 kmh 30.55 in1034.5 mb 0.00 in0.0 mm 0.00 in0.0 mm 0.00 in0.0 mm
07:11 AM 22.3°F-5.4°C 11.1°F-11.6°C 62% 5.0 mph NW8.0 kmh NW 10.0 mph16.1 kmh 30.55 in1034.5 mb 0.00 in0.0 mm 0.00 in0.0 mm 0.00 in0.0 mm
07:06 AM 22.4°F-5.3°C 11.2°F-11.6°C 62% 7.0 mph NNW11.3 kmh NNW 10.0 mph16.1 kmh 30.55 in1034.5 mb 0.00 in0.0 mm 0.00 in0.0 mm 0.00 in0.0 mm
07:01 AM 22.4°F-5.3°C 11.2°F-11.6°C 62% 3.0 mph WNW4.8 kmh WNW 8.0 mph12.9 kmh 30.55 in1034.5 mb 0.00 in0.0 mm 0.00 in0.0 mm 0.00 in0.0 mm
06:56 AM 22.4°F-5.3°C 11.2°F-11.6°C 62% 6.0 mph N9.7 kmh N 8.0 mph12.9 kmh 30.55 in1034.5 mb 0.00 in0.0 mm 0.00 in0.0 mm 0.00 in0.0 mm
06:51 AM 22.4°F-5.3°C 11.6°F-11.3°C 63% 3.0 mph NNW4.8 kmh NNW 7.0 mph11.3 kmh 30.55 in1034.5 mb 0.00 in0.0 mm 0.00 in0.0 mm 0.00 in0.0 mm
06:46 AM 22.5°F-5.3°C 11.7°F-11.3°C 63% 3.0 mph WNW4.8 kmh WNW 7.0 mph11.3 kmh 30.55 in1034.5 mb 0.00 in0.0 mm 0.00 in0.0 mm 0.00 in0.0 mm
06:41 AM 22.5°F-5.3°C 11.7°F-11.3°C 63% 1.0 mph NW1.6 kmh NW 7.0 mph11.3 kmh 30.55 in1034.5 mb 0.00 in0.0 mm 0.00 in0.0 mm 0.00 in0.0 mm
06:36 AM 22.5°F-5.3°C 11.7°F-11.3°C 63% 4.0 mph NW6.4 kmh NW 6.0 mph9.7 kmh 30.54 in1034.2 mb 0.00 in0.0 mm 0.00 in0.0 mm 0.00 in0.0 mm
06:31 AM 22.5°F-5.3°C 11.7°F-11.3°C 63% 3.0 mph NNW4.8 kmh NNW 6.0 mph9.7 kmh 30.54 in1034.2 mb 0.00 in0.0 mm 0.00 in0.0 mm 0.00 in0.0 mm
06:26 AM 22.5°F-5.3°C 11.7°F-11.3°C 63% 2.0 mph NW3.2 kmh NW 8.0 mph12.9 kmh 30.54 in1034.2 mb 0.00 in0.0 mm 0.00 in0.0 mm 0.00 in0.0 mm
06:21 AM 22.6°F-5.2°C 11.8°F-11.2°C 63% 6.0 mph N9.7 kmh N 8.0 mph12.9 kmh 30.54 in1034.2 mb 0.00 in0.0 mm 0.00 in0.0 mm 0.00 in0.0 mm
06:16 AM 22.6°F-5.2°C 11.8°F-11.2°C 63% 2.0 mph NNW3.2 kmh NNW 8.0 mph12.9 kmh 30.54 in1034.2 mb 0.00 in0.0 mm 0.00 in0.0 mm 0.00 in0.0 mm
06:11 AM 22.7°F-5.2°C 11.9°F-11.2°C 63% 2.0 mph N3.2 kmh N 8.0 mph12.9 kmh 30.54 in1034.2 mb 0.00 in0.0 mm 0.00 in0.0 mm 0.00 in0.0 mm
06:06 AM 22.7°F-5.2°C 11.9°F-11.2°C 63% 6.0 mph N9.7 kmh N 6.0 mph9.7 kmh 30.54 in1034.2 mb 0.00 in0.0 mm 0.00 in0.0 mm 0.00 in0.0 mm
06:01 AM 22.8°F-5.1°C 12.0°F-11.1°C 63% 3.0 mph NNW4.8 kmh NNW 6.0 mph9.7 kmh 30.54 in1034.2 mb 0.00 in0.0 mm 0.00 in0.0 mm 0.00 in0.0 mm
05:56 AM 22.8°F-5.1°C 12.0°F-11.1°C 63% 2.0 mph WNW3.2 kmh WNW 7.0 mph11.3 kmh 30.54 in1034.2 mb 0.00 in0.0 mm 0.00 in0.0 mm 0.00 in0.0 mm
05:51 AM 22.9°F-5.1°C 12.1°F-11.1°C 63% 1.0 mph NNE1.6 kmh NNE 7.0 mph11.3 kmh 30.54 in1034.2 mb 0.00 in0.0 mm 0.00 in0.0 mm 0.00 in0.0 mm
05:46 AM 22.9°F-5.1°C 12.1°F-11.1°C 63% 2.0 mph NW3.2 kmh NW 7.0 mph11.3 kmh 30.54 in1034.2 mb 0.00 in0.0 mm 0.00 in0.0 mm 0.00 in0.0 mm
05:41 AM 22.9°F-5.1°C 12.1°F-11.1°C 63% 4.0 mph NW6.4 kmh NW 7.0 mph11.3 kmh 30.53 in1033.9 mb 0.00 in0.0 mm 0.00 in0.0 mm 0.00 in0.0 mm
05:36 AM 23.0°F-5.0°C 11.8°F-11.2°C 62% 4.0 mph WNW6.4 kmh WNW 7.0 mph11.3 kmh 30.53 in1033.9 mb 0.00 in0.0 mm 0.00 in0.0 mm 0.00 in0.0 mm
05:31 AM 23.0°F-5.0°C 11.8°F-11.2°C 62% 2.0 mph NNW3.2 kmh NNW 7.0 mph11.3 kmh 30.53 in1033.9 mb 0.00 in0.0 mm 0.00 in0.0 mm 0.00 in0.0 mm
05:26 AM 23.0°F-5.0°C 11.8°F-11.2°C 62% 4.0 mph NW6.4 kmh NW 7.0 mph11.3 kmh 30.53 in1033.9 mb 0.00 in0.0 mm 0.00 in0.0 mm 0.00 in0.0 mm
05:21 AM 23.0°F-5.0°C 11.8°F-11.2°C 62% 5.0 mph NW8.0 kmh NW 7.0 mph11.3 kmh 30.52 in1033.5 mb 0.00 in0.0 mm 0.00 in0.0 mm 0.00 in0.0 mm
05:16 AM 22.9°F-5.1°C 11.7°F-11.3°C 62% 3.0 mph NW4.8 kmh NW 7.0 mph11.3 kmh 30.52 in1033.5 mb 0.00 in0.0 mm 0.00 in0.0 mm 0.00 in0.0 mm
05:11 AM 22.9°F-5.1°C 11.7°F-11.3°C 62% 1.0 mph NW1.6 kmh NW 6.0 mph9.7 kmh 30.52 in1033.5 mb 0.00 in0.0 mm 0.00 in0.0 mm 0.00 in0.0 mm
05:06 AM 22.9°F-5.1°C 11.7°F-11.3°C 62% 2.0 mph NNW3.2 kmh NNW 6.0 mph9.7 kmh 30.52 in1033.5 mb 0.00 in0.0 mm 0.00 in0.0 mm 0.00 in0.0 mm
05:01 AM 22.8°F-5.1°C 11.6°F-11.3°C 62% 2.0 mph WNW3.2 kmh WNW 8.0 mph12.9 kmh 30.52 in1033.5 mb 0.00 in0.0 mm 0.00 in0.0 mm 0.00 in0.0 mm
04:56 AM 22.8°F-5.1°C 11.2°F-11.6°C 61% 2.0 mph NW3.2 kmh NW 8.0 mph12.9 kmh 30.52 in1033.5 mb 0.00 in0.0 mm 0.00 in0.0 mm 0.00 in0.0 mm
04:51 AM 22.8°F-5.1°C 11.2°F-11.6°C 61% 2.0 mph NW3.2 kmh NW 8.0 mph12.9 kmh 30.52 in1033.5 mb 0.00 in0.0 mm 0.00 in0.0 mm 0.00 in0.0 mm
04:46 AM 22.8°F-5.1°C 11.2°F-11.6°C 61% 4.0 mph WNW6.4 kmh WNW 8.0 mph12.9 kmh 30.52 in1033.5 mb 0.00 in0.0 mm 0.00 in0.0 mm 0.00 in0.0 mm
04:41 AM 22.8°F-5.1°C 11.2°F-11.6°C 61% 3.0 mph NW4.8 kmh NW 7.0 mph11.3 kmh 30.52 in1033.5 mb 0.00 in0.0 mm 0.00 in0.0 mm 0.00 in0.0 mm
04:36 AM 22.7°F-5.2°C 11.1°F-11.6°C 61% 3.0 mph WNW4.8 kmh WNW 6.0 mph9.7 kmh 30.52 in1033.5 mb 0.00 in0.0 mm 0.00 in0.0 mm 0.00 in0.0 mm
04:31 AM 22.7°F-5.2°C 11.1°F-11.6°C 61% 5.0 mph NW8.0 kmh NW 6.0 mph9.7 kmh 30.52 in1033.5 mb 0.00 in0.0 mm 0.00 in0.0 mm 0.00 in0.0 mm
04:26 AM 22.7°F-5.2°C 11.1°F-11.6°C 61% 2.0 mph NW3.2 kmh NW 7.0 mph11.3 kmh 30.51 in1033.2 mb 0.00 in0.0 mm 0.00 in0.0 mm 0.00 in0.0 mm
04:21 AM 22.8°F-5.1°C 11.2°F-11.6°C 61% 1.0 mph NW1.6 kmh NW 7.0 mph11.3 kmh 30.51 in1033.2 mb 0.00 in0.0 mm 0.00 in0.0 mm 0.00 in0.0 mm
04:16 AM 22.8°F-5.1°C 10.8°F-11.8°C 60% 1.0 mph NW1.6 kmh NW 7.0 mph11.3 kmh 30.51 in1033.2 mb 0.00 in0.0 mm 0.00 in0.0 mm 0.00 in0.0 mm
04:11 AM 22.9°F-5.1°C 10.9°F-11.7°C 60% 1.0 mph NE1.6 kmh NE 7.0 mph11.3 kmh 30.51 in1033.2 mb 0.00 in0.0 mm 0.00 in0.0 mm 0.00 in0.0 mm
04:06 AM 23.0°F-5.0°C 11.0°F-11.7°C 60% 1.0 mph NW1.6 kmh NW 7.0 mph11.3 kmh 30.51 in1033.2 mb 0.00 in0.0 mm 0.00 in0.0 mm 0.00 in0.0 mm
04:01 AM 23.0°F-5.0°C 10.6°F-11.9°C 59% 2.0 mph NW3.2 kmh NW 7.0 mph11.3 kmh 30.51 in1033.2 mb 0.00 in0.0 mm 0.00 in0.0 mm 0.00 in0.0 mm
03:56 AM 23.1°F-4.9°C 10.7°F-11.8°C 59% 2.0 mph NW3.2 kmh NW 7.0 mph11.3 kmh 30.52 in1033.5 mb 0.00 in0.0 mm 0.00 in0.0 mm 0.00 in0.0 mm
03:51 AM 23.2°F-4.9°C 10.8°F-11.8°C 59% 2.0 mph NW3.2 kmh NW 7.0 mph11.3 kmh 30.51 in1033.2 mb 0.00 in0.0 mm 0.00 in0.0 mm 0.00 in0.0 mm
03:46 AM 23.3°F-4.8°C 11.3°F-11.5°C 60% 4.0 mph NW6.4 kmh NW 6.0 mph9.7 kmh 30.51 in1033.2 mb 0.00 in0.0 mm 0.00 in0.0 mm 0.00 in0.0 mm
03:41 AM 23.4°F-4.8°C 11.4°F-11.4°C 60% 2.0 mph WNW3.2 kmh WNW 5.0 mph8.0 kmh 30.51 in1033.2 mb 0.00 in0.0 mm 0.00 in0.0 mm 0.00 in0.0 mm
03:36 AM 23.5°F-4.7°C 11.5°F-11.4°C 60% 4.0 mph NW6.4 kmh NW 7.0 mph11.3 kmh 30.51 in1033.2 mb 0.00 in0.0 mm 0.00 in0.0 mm 0.00 in0.0 mm
03:31 AM 23.6°F-4.7°C 11.6°F-11.3°C 60% 3.0 mph NW4.8 kmh NW 7.0 mph11.3 kmh 30.51 in1033.2 mb 0.00 in0.0 mm 0.00 in0.0 mm 0.00 in0.0 mm
03:26 AM 23.7°F-4.6°C 11.3°F-11.5°C 59% 2.0 mph NW3.2 kmh NW 8.0 mph12.9 kmh 30.52 in1033.5 mb 0.00 in0.0 mm 0.00 in0.0 mm 0.00 in0.0 mm
03:21 AM 23.8°F-4.6°C 11.4°F-11.4°C 59% 4.0 mph NNW6.4 kmh NNW 8.0 mph12.9 kmh 30.52 in1033.5 mb 0.00 in0.0 mm 0.00 in0.0 mm 0.00 in0.0 mm
03:16 AM 23.9°F-4.5°C 11.5°F-11.4°C 59% 7.0 mph NW11.3 kmh NW 8.0 mph12.9 kmh 30.52 in1033.5 mb 0.00 in0.0 mm 0.00 in0.0 mm 0.00 in0.0 mm
03:11 AM 24.1°F-4.4°C 11.7°F-11.3°C 59% 2.0 mph NW3.2 kmh NW 8.0 mph12.9 kmh 30.52 in1033.5 mb 0.00 in0.0 mm 0.00 in0.0 mm 0.00 in0.0 mm
03:06 AM 24.2°F-4.3°C 11.8°F-11.2°C 59% 4.0 mph NNW6.4 kmh NNW 7.0 mph11.3 kmh 30.52 in1033.5 mb 0.00 in0.0 mm 0.00 in0.0 mm 0.00 in0.0 mm
03:01 AM 24.3°F-4.3°C 11.8°F-11.2°C 59% 3.0 mph NW4.8 kmh NW 8.0 mph12.9 kmh 30.52 in1033.5 mb 0.00 in0.0 mm 0.00 in0.0 mm 0.00 in0.0 mm
02:56 AM 24.4°F-4.2°C 11.5°F-11.4°C 58% 1.0 mph NW1.6 kmh NW 8.0 mph12.9 kmh 30.52 in1033.5 mb 0.00 in0.0 mm 0.00 in0.0 mm 0.00 in0.0 mm
02:51 AM 24.5°F-4.2°C 11.6°F-11.3°C 58% 1.0 mph NNW1.6 kmh NNW 10.0 mph16.1 kmh 30.52 in1033.5 mb 0.00 in0.0 mm 0.00 in0.0 mm 0.00 in0.0 mm
02:46 AM 24.6°F-4.1°C 11.7°F-11.3°C 58% 3.0 mph WNW4.8 kmh WNW 10.0 mph16.1 kmh 30.52 in1033.5 mb 0.00 in0.0 mm 0.00 in0.0 mm 0.00 in0.0 mm
02:41 AM 24.7°F-4.1°C 11.8°F-11.2°C 58% 4.0 mph NNW6.4 kmh NNW 10.0 mph16.1 kmh 30.52 in1033.5 mb 0.00 in0.0 mm 0.00 in0.0 mm 0.00 in0.0 mm
02:36 AM 24.8°F-4.0°C 12.3°F-10.9°C 59% 4.0 mph NW6.4 kmh NW 10.0 mph16.1 kmh 30.52 in1033.5 mb 0.00 in0.0 mm 0.00 in0.0 mm 0.00 in0.0 mm
02:31 AM 25.0°F-3.9°C 12.5°F-10.8°C 59% 3.0 mph NW4.8 kmh NW 8.0 mph12.9 kmh 30.52 in1033.5 mb 0.00 in0.0 mm 0.00 in0.0 mm 0.00 in0.0 mm
02:26 AM 25.1°F-3.8°C 12.6°F-10.8°C 59% 3.0 mph NW4.8 kmh NW 11.0 mph17.7 kmh 30.52 in1033.5 mb 0.00 in0.0 mm 0.00 in0.0 mm 0.00 in0.0 mm
02:21 AM 25.2°F-3.8°C 12.7°F-10.7°C 59% 3.0 mph NW4.8 kmh NW 11.0 mph17.7 kmh 30.52 in1033.5 mb 0.00 in0.0 mm 0.00 in0.0 mm 0.00 in0.0 mm
02:16 AM 25.3°F-3.7°C 12.8°F-10.7°C 59% 5.0 mph NNW8.0 kmh NNW 13.0 mph20.9 kmh 30.52 in1033.5 mb 0.00 in0.0 mm 0.00 in0.0 mm 0.00 in0.0 mm
02:11 AM 25.4°F-3.7°C 12.9°F-10.6°C 59% 9.0 mph WNW14.5 kmh WNW 13.0 mph20.9 kmh 30.52 in1033.5 mb 0.00 in0.0 mm 0.00 in0.0 mm 0.00 in0.0 mm
02:06 AM 25.4°F-3.7°C 13.3°F-10.4°C 60% 5.0 mph NW8.0 kmh NW 13.0 mph20.9 kmh 30.52 in1033.5 mb 0.00 in0.0 mm 0.00 in0.0 mm 0.00 in0.0 mm
02:01 AM 25.5°F-3.6°C 13.8°F-10.1°C 61% 5.0 mph WNW8.0 kmh WNW 13.0 mph20.9 kmh 30.52 in1033.5 mb 0.00 in0.0 mm 0.00 in0.0 mm 0.00 in0.0 mm
01:56 AM 25.6°F-3.6°C 14.2°F-9.9°C 62% 3.0 mph NW4.8 kmh NW 11.0 mph17.7 kmh 30.52 in1033.5 mb 0.00 in0.0 mm 0.00 in0.0 mm 0.00 in0.0 mm
01:51 AM 25.7°F-3.5°C 15.1°F-9.4°C 64% 11.0 mph WNW17.7 kmh WNW 12.0 mph19.3 kmh 30.51 in1033.2 mb 0.00 in0.0 mm 0.00 in0.0 mm 0.00 in0.0 mm
01:46 AM 25.8°F-3.4°C 15.5°F-9.2°C 65% 6.0 mph NW9.7 kmh NW 12.0 mph19.3 kmh 30.51 in1033.2 mb 0.00 in0.0 mm 0.00 in0.0 mm 0.00 in0.0 mm
01:41 AM 25.9°F-3.4°C 16.0°F-8.9°C 66% 5.0 mph NW8.0 kmh NW 12.0 mph19.3 kmh 30.52 in1033.5 mb 0.00 in0.0 mm 0.00 in0.0 mm 0.00 in0.0 mm
01:36 AM 25.9°F-3.4°C 16.4°F-8.7°C 67% 7.0 mph N11.3 kmh N 12.0 mph19.3 kmh 30.51 in1033.2 mb 0.00 in0.0 mm 0.00 in0.0 mm 0.00 in0.0 mm
01:31 AM 25.7°F-3.5°C 16.5°F-8.6°C 68% 2.0 mph N3.2 kmh N 7.0 mph11.3 kmh 30.51 in1033.2 mb 0.00 in0.0 mm 0.00 in0.0 mm 0.00 in0.0 mm
01:26 AM 25.5°F-3.6°C 16.7°F-8.5°C 69% 1.0 mph NW1.6 kmh NW 8.0 mph12.9 kmh 30.51 in1033.2 mb 0.00 in0.0 mm 0.00 in0.0 mm 0.00 in0.0 mm
01:21 AM 25.2°F-3.8°C 16.7°F-8.5°C 70% 4.0 mph NW6.4 kmh NW 8.0 mph12.9 kmh 30.51 in1033.2 mb 0.00 in0.0 mm 0.00 in0.0 mm 0.00 in0.0 mm
01:16 AM 24.8°F-4.0°C 16.7°F-8.5°C 71% 4.0 mph NW6.4 kmh NW 8.0 mph12.9 kmh 30.51 in1033.2 mb 0.00 in0.0 mm 0.00 in0.0 mm 0.00 in0.0 mm
01:11 AM 24.5°F-4.2°C 16.7°F-8.5°C 72% 3.0 mph NW4.8 kmh NW 8.0 mph12.9 kmh 30.51 in1033.2 mb 0.00 in0.0 mm 0.00 in0.0 mm 0.00 in0.0 mm
01:06 AM 24.2°F-4.3°C 16.4°F-8.7°C 72% 4.0 mph NW6.4 kmh NW 4.0 mph6.4 kmh 30.52 in1033.5 mb 0.00 in0.0 mm 0.00 in0.0 mm 0.00 in0.0 mm
01:01 AM 24.1°F-4.4°C 16.0°F-8.9°C 71% 1.0 mph NNW1.6 kmh NNW 3.0 mph4.8 kmh 30.51 in1033.2 mb 0.00 in0.0 mm 0.00 in0.0 mm 0.00 in0.0 mm
12:56 AM 24.0°F-4.4°C 15.9°F-8.9°C 71% Calm Calm 2.0 mph3.2 kmh 30.51 in1033.2 mb 0.00 in0.0 mm 0.00 in0.0 mm 0.00 in0.0 mm
12:51 AM 24.1°F-4.4°C 16.0°F-8.9°C 71% Calm Calm -- 30.51 in1033.2 mb 0.00 in0.0 mm 0.00 in0.0 mm 0.00 in0.0 mm
12:46 AM 24.1°F-4.4°C 16.0°F-8.9°C 71% Calm Calm 1.0 mph1.6 kmh 30.51 in1033.2 mb 0.00 in0.0 mm 0.00 in0.0 mm 0.00 in0.0 mm
12:41 AM 24.1°F-4.4°C 16.0°F-8.9°C 71% Calm Calm 3.0 mph4.8 kmh 30.51 in1033.2 mb 0.00 in0.0 mm 0.00 in0.0 mm 0.00 in0.0 mm
12:36 AM 24.0°F-4.4°C 15.9°F-8.9°C 71% 2.0 mph W3.2 kmh W 3.0 mph4.8 kmh 30.51 in1033.2 mb 0.00 in0.0 mm 0.00 in0.0 mm 0.00 in0.0 mm
12:31 AM 24.0°F-4.4°C 15.9°F-8.9°C 71% 2.0 mph W3.2 kmh W 3.0 mph4.8 kmh 30.51 in1033.2 mb 0.00 in0.0 mm 0.00 in0.0 mm 0.00 in0.0 mm
12:26 AM 24.1°F-4.4°C 16.0°F-8.9°C 71% Calm Calm -- 30.51 in1033.2 mb 0.00 in0.0 mm 0.00 in0.0 mm 0.00 in0.0 mm
12:21 AM 24.2°F-4.3°C 16.1°F-8.8°C 71% Calm Calm -- 30.50 in1032.8 mb 0.00 in0.0 mm 0.00 in0.0 mm 0.00 in0.0 mm
12:16 AM 24.3°F-4.3°C 16.2°F-8.8°C 71% Calm Calm -- 30.50 in1032.8 mb 0.00 in0.0 mm 0.00 in0.0 mm 0.00 in0.0 mm
12:11 AM 24.3°F-4.3°C 16.2°F-8.8°C 71% Calm Calm -- 30.51 in1033.2 mb 0.00 in0.0 mm 0.00 in0.0 mm 0.00 in0.0 mm
12:06 AM 24.3°F-4.3°C 16.2°F-8.8°C 71% Calm Calm -- 30.50 in1032.8 mb 0.00 in0.0 mm 0.00 in0.0 mm 0.00 in0.0 mm
12:01 AM 24.3°F-4.3°C 16.2°F-8.8°C 71% Calm Calm -- 30.50 in1032.8 mb 0.00 in0.0 mm 0.00 in0.0 mm 0.00 in0.0 mm